sensor_id;sensor_type;location;lat;lon;timestamp;P1;durP1;ratioP1;P2;durP2;ratioP2
15814;SDS011;8008;50.024;8.172;2023-04-03T03:01:46;1.60;;;1.30;;
15814;SDS011;8008;50.024;8.172;2023-04-03T03:04:14;2.90;;;1.20;;
15814;SDS011;8008;50.024;8.172;2023-04-03T03:06:43;4.13;;;1.53;;
15814;SDS011;8008;50.024;8.172;2023-04-03T03:09:12;3.43;;;1.43;;
15814;SDS011;8008;50.024;8.172;2023-04-03T03:11:41;1.57;;;1.20;;
15814;SDS011;8008;50.024;8.172;2023-04-03T03:14:09;2.33;;;1.30;;
15814;SDS011;8008;50.024;8.172;2023-04-03T03:16:37;2.87;;;1.40;;
15814;SDS011;8008;50.024;8.172;2023-04-03T03:19:06;4.13;;;1.30;;
15814;SDS011;8008;50.024;8.172;2023-04-03T03:21:35;3.73;;;1.30;;
15814;SDS011;8008;50.024;8.172;2023-04-03T03:24:03;3.07;;;1.20;;
15814;SDS011;8008;50.024;8.172;2023-04-03T03:26:32;2.20;;;1.30;;
15814;SDS011;8008;50.024;8.172;2023-04-03T03:29:01;2.37;;;1.37;;
15814;SDS011;8008;50.024;8.172;2023-04-03T03:31:29;3.07;;;1.20;;
15814;SDS011;8008;50.024;8.172;2023-04-03T03:33:57;4.80;;;1.30;;
15814;SDS011;8008;50.024;8.172;2023-04-03T03:36:26;3.60;;;1.30;;
15814;SDS011;8008;50.024;8.172;2023-04-03T03:38:56;2.60;;;1.30;;
15814;SDS011;8008;50.024;8.172;2023-04-03T03:41:23;2.60;;;1.30;;
15814;SDS011;8008;50.024;8.172;2023-04-03T03:43:51;3.33;;;1.50;;
15814;SDS011;8008;50.024;8.172;2023-04-03T03:46:19;3.70;;;1.43;;
15814;SDS011;8008;50.024;8.172;2023-04-03T03:48:47;3.50;;;1.30;;
15814;SDS011;8008;50.024;8.172;2023-04-03T03:51:15;3.83;;;1.50;;
15814;SDS011;8008;50.024;8.172;2023-04-03T03:53:45;3.53;;;1.50;;
15814;SDS011;8008;50.024;8.172;2023-04-03T03:56:15;3.03;;;1.40;;
15814;SDS011;8008;50.024;8.172;2023-04-03T03:58:44;2.07;;;1.30;;
15814;SDS011;8008;50.024;8.172;2023-04-03T04:01:13;3.33;;;1.63;;
15814;SDS011;8008;50.024;8.172;2023-04-03T04:03:45;3.07;;;1.13;;
15814;SDS011;8008;50.024;8.172;2023-04-03T04:06:18;2.90;;;1.40;;
15814;SDS011;8008;50.024;8.172;2023-04-03T04:08:48;3.33;;;1.47;;
15814;SDS011;8008;50.024;8.172;2023-04-03T04:11:16;3.03;;;1.20;;
15814;SDS011;8008;50.024;8.172;2023-04-03T04:13:45;3.50;;;1.40;;
15814;SDS011;8008;50.024;8.172;2023-04-03T04:16:15;1.53;;;1.10;;
15814;SDS011;8008;50.024;8.172;2023-04-03T04:18:43;4.23;;;1.43;;
15814;SDS011;8008;50.024;8.172;2023-04-03T04:21:12;4.43;;;1.40;;
15814;SDS011;8008;50.024;8.172;2023-04-03T04:23:41;2.73;;;1.20;;
15814;SDS011;8008;50.024;8.172;2023-04-03T04:26:10;4.03;;;1.40;;
15814;SDS011;8008;50.024;8.172;2023-04-03T04:28:39;3.60;;;1.23;;
15814;SDS011;8008;50.024;8.172;2023-04-03T04:31:07;3.70;;;1.40;;
15814;SDS011;8008;50.024;8.172;2023-04-03T04:33:35;2.27;;;1.33;;
15814;SDS011;8008;50.024;8.172;2023-04-03T04:36:05;2.87;;;1.13;;
15814;SDS011;8008;50.024;8.172;2023-04-03T04:38:34;2.90;;;1.20;;
15814;SDS011;8008;50.024;8.172;2023-04-03T04:41:02;3.17;;;1.40;;
15814;SDS011;8008;50.024;8.172;2023-04-03T04:43:32;1.40;;;1.20;;
15814;SDS011;8008;50.024;8.172;2023-04-03T04:46:01;3.47;;;1.43;;
15814;SDS011;8008;50.024;8.172;2023-04-03T04:48:33;2.13;;;1.20;;
15814;SDS011;8008;50.024;8.172;2023-04-03T04:51:02;3.47;;;1.10;;
15814;SDS011;8008;50.024;8.172;2023-04-03T04:53:31;2.40;;;1.10;;
15814;SDS011;8008;50.024;8.172;2023-04-03T04:56:00;3.13;;;1.40;;
15814;SDS011;8008;50.024;8.172;2023-04-03T04:58:29;3.53;;;1.27;;
15814;SDS011;8008;50.024;8.172;2023-04-03T05:00:59;4.27;;;1.60;;
15814;SDS011;8008;50.024;8.172;2023-04-03T05:03:29;3.47;;;1.10;;
15814;SDS011;8008;50.024;8.172;2023-04-03T05:05:57;2.90;;;1.50;;
15814;SDS011;8008;50.024;8.172;2023-04-03T05:08:27;3.47;;;1.50;;
15814;SDS011;8008;50.024;8.172;2023-04-03T05:10:56;2.87;;;1.30;;
15814;SDS011;8008;50.024;8.172;2023-04-03T05:13:25;2.50;;;1.30;;
15814;SDS011;8008;50.024;8.172;2023-04-03T05:15:55;1.73;;;1.20;;
15814;SDS011;8008;50.024;8.172;2023-04-03T05:18:24;4.05;;;1.50;;
15814;SDS011;8008;50.024;8.172;2023-04-03T05:20:55;2.60;;;1.20;;
15814;SDS011;8008;50.024;8.172;2023-04-03T05:23:24;2.93;;;1.20;;
15814;SDS011;8008;50.024;8.172;2023-04-03T05:25:53;3.03;;;1.40;;
15814;SDS011;8008;50.024;8.172;2023-04-03T05:28:22;3.37;;;1.30;;
15814;SDS011;8008;50.024;8.172;2023-04-03T05:30:52;2.33;;;1.40;;
15814;SDS011;8008;50.024;8.172;2023-04-03T05:33:22;4.20;;;1.40;;
15814;SDS011;8008;50.024;8.172;2023-04-03T05:35:54;3.83;;;1.40;;
15814;SDS011;8008;50.024;8.172;2023-04-03T05:38:26;4.03;;;1.30;;
15814;SDS011;8008;50.024;8.172;2023-04-03T05:40:55;2.10;;;1.40;;
15814;SDS011;8008;50.024;8.172;2023-04-03T05:43:23;2.40;;;1.37;;
15814;SDS011;8008;50.024;8.172;2023-04-03T05:45:52;2.57;;;1.40;;
15814;SDS011;8008;50.024;8.172;2023-04-03T05:48:22;4.10;;;1.33;;
15814;SDS011;8008;50.024;8.172;2023-04-03T05:50:50;6.00;;;1.30;;
15814;SDS011;8008;50.024;8.172;2023-04-03T05:53:25;2.97;;;1.50;;
15814;SDS011;8008;50.024;8.172;2023-04-03T05:56:00;3.03;;;1.50;;
15814;SDS011;8008;50.024;8.172;2023-04-03T05:58:30;3.17;;;1.50;;
15814;SDS011;8008;50.024;8.172;2023-04-03T06:01:00;3.57;;;1.40;;
15814;SDS011;8008;50.024;8.172;2023-04-03T06:03:28;6.33;;;1.63;;
15814;SDS011;8008;50.024;8.172;2023-04-03T06:05:57;3.77;;;1.67;;
15814;SDS011;8008;50.024;8.172;2023-04-03T06:08:26;4.43;;;1.50;;
15814;SDS011;8008;50.024;8.172;2023-04-03T06:10:54;4.33;;;1.50;;
15814;SDS011;8008;50.024;8.172;2023-04-03T06:13:22;4.53;;;1.40;;
15814;SDS011;8008;50.024;8.172;2023-04-03T06:15:50;4.77;;;1.50;;
15814;SDS011;8008;50.024;8.172;2023-04-03T06:18:18;4.63;;;1.50;;
15814;SDS011;8008;50.024;8.172;2023-04-03T06:20:46;3.80;;;1.50;;
15814;SDS011;8008;50.024;8.172;2023-04-03T06:23:14;2.67;;;1.20;;
15814;SDS011;8008;50.024;8.172;2023-04-03T06:25:44;2.37;;;1.27;;
15814;SDS011;8008;50.024;8.172;2023-04-03T06:28:12;3.60;;;1.50;;
15814;SDS011;8008;50.024;8.172;2023-04-03T06:30:40;4.33;;;1.50;;
15814;SDS011;8008;50.024;8.172;2023-04-03T06:33:08;2.53;;;1.47;;
15814;SDS011;8008;50.024;8.172;2023-04-03T06:35:36;3.33;;;1.30;;
15814;SDS011;8008;50.024;8.172;2023-04-03T06:38:04;2.90;;;1.23;;
15814;SDS011;8008;50.024;8.172;2023-04-03T06:40:35;3.97;;;1.40;;
15814;SDS011;8008;50.024;8.172;2023-04-03T06:43:05;2.20;;;1.20;;
15814;SDS011;8008;50.024;8.172;2023-04-03T06:45:33;2.10;;;1.03;;
15814;SDS011;8008;50.024;8.172;2023-04-03T06:48:03;3.33;;;1.20;;
15814;SDS011;8008;50.024;8.172;2023-04-03T06:50:31;3.63;;;1.40;;
15814;SDS011;8008;50.024;8.172;2023-04-03T06:52:59;4.47;;;1.50;;
15814;SDS011;8008;50.024;8.172;2023-04-03T06:55:28;4.10;;;1.60;;
15814;SDS011;8008;50.024;8.172;2023-04-03T06:57:56;5.07;;;1.10;;
15814;SDS011;8008;50.024;8.172;2023-04-03T07:00:26;2.40;;;1.17;;
15814;SDS011;8008;50.024;8.172;2023-04-03T07:02:54;3.43;;;1.17;;
15814;SDS011;8008;50.024;8.172;2023-04-03T07:05:23;2.53;;;1.13;;
15814;SDS011;8008;50.024;8.172;2023-04-03T07:07:52;2.90;;;1.10;;
15814;SDS011;8008;50.024;8.172;2023-04-03T07:10:20;1.57;;;1.10;;
15814;SDS011;8008;50.024;8.172;2023-04-03T07:12:48;2.87;;;1.00;;
15814;SDS011;8008;50.024;8.172;2023-04-03T07:15:16;2.23;;;1.17;;
15814;SDS011;8008;50.024;8.172;2023-04-03T07:17:45;1.60;;;1.10;;
15814;SDS011;8008;50.024;8.172;2023-04-03T07:20:13;2.03;;;1.23;;
15814;SDS011;8008;50.024;8.172;2023-04-03T07:22:42;7.53;;;1.40;;
15814;SDS011;8008;50.024;8.172;2023-04-03T07:25:09;1.90;;;1.20;;
15814;SDS011;8008;50.024;8.172;2023-04-03T07:27:37;2.10;;;1.03;;
15814;SDS011;8008;50.024;8.172;2023-04-03T07:30:06;2.47;;;1.07;;
15814;SDS011;8008;50.024;8.172;2023-04-03T07:32:35;3.20;;;1.30;;
15814;SDS011;8008;50.024;8.172;2023-04-03T07:35:05;3.63;;;1.33;;
15814;SDS011;8008;50.024;8.172;2023-04-03T07:37:33;3.23;;;1.10;;
15814;SDS011;8008;50.024;8.172;2023-04-03T07:40:01;2.83;;;1.23;;
15814;SDS011;8008;50.024;8.172;2023-04-03T07:42:29;4.03;;;1.25;;
15814;SDS011;8008;50.024;8.172;2023-04-03T07:44:57;3.13;;;1.10;;
15814;SDS011;8008;50.024;8.172;2023-04-03T07:47:26;5.90;;;1.20;;
15814;SDS011;8008;50.024;8.172;2023-04-03T07:49:54;2.93;;;1.30;;
15814;SDS011;8008;50.024;8.172;2023-04-03T07:52:24;4.13;;;1.30;;
15814;SDS011;8008;50.024;8.172;2023-04-03T07:54:52;3.40;;;1.30;;
15814;SDS011;8008;50.024;8.172;2023-04-03T07:57:20;3.27;;;1.17;;
15814;SDS011;8008;50.024;8.172;2023-04-03T07:59:48;2.43;;;1.17;;
15814;SDS011;8008;50.024;8.172;2023-04-03T08:02:16;3.30;;;1.20;;
15814;SDS011;8008;50.024;8.172;2023-04-03T08:04:44;2.43;;;1.30;;
15814;SDS011;8008;50.024;8.172;2023-04-03T08:07:12;2.87;;;1.10;;
15814;SDS011;8008;50.024;8.172;2023-04-03T08:09:41;3.10;;;1.30;;
15814;SDS011;8008;50.024;8.172;2023-04-03T08:12:09;2.27;;;1.27;;
15814;SDS011;8008;50.024;8.172;2023-04-03T08:14:37;4.93;;;1.23;;
15814;SDS011;8008;50.024;8.172;2023-04-03T08:17:05;4.03;;;1.53;;
15814;SDS011;8008;50.024;8.172;2023-04-03T08:19:35;1.97;;;1.20;;
15814;SDS011;8008;50.024;8.172;2023-04-03T08:22:03;2.00;;;1.27;;
15814;SDS011;8008;50.024;8.172;2023-04-03T08:24:31;2.30;;;1.10;;
15814;SDS011;8008;50.024;8.172;2023-04-03T08:27:01;2.37;;;1.27;;
15814;SDS011;8008;50.024;8.172;2023-04-03T08:29:29;2.03;;;1.20;;
15814;SDS011;8008;50.024;8.172;2023-04-03T08:31:58;3.50;;;1.60;;
15814;SDS011;8008;50.024;8.172;2023-04-03T08:34:26;1.20;;;1.10;;
15814;SDS011;8008;50.024;8.172;2023-04-03T08:36:54;2.90;;;1.50;;
15814;SDS011;8008;50.024;8.172;2023-04-03T08:39:22;3.70;;;1.40;;
15814;SDS011;8008;50.024;8.172;2023-04-03T08:41:50;3.30;;;1.50;;
15814;SDS011;8008;50.024;8.172;2023-04-03T08:44:23;3.07;;;1.23;;
15814;SDS011;8008;50.024;8.172;2023-04-03T08:47:02;3.93;;;1.50;;
15814;SDS011;8008;50.024;8.172;2023-04-03T08:49:39;2.93;;;1.30;;
15814;SDS011;8008;50.024;8.172;2023-04-03T08:52:13;3.27;;;1.30;;
15814;SDS011;8008;50.024;8.172;2023-04-03T08:54:48;2.87;;;1.30;;
15814;SDS011;8008;50.024;8.172;2023-04-03T08:57:18;5.03;;;1.50;;
15814;SDS011;8008;50.024;8.172;2023-04-03T09:00:00;3.13;;;1.33;;
15814;SDS011;8008;50.024;8.172;2023-04-03T09:02:34;3.97;;;1.73;;
15814;SDS011;8008;50.024;8.172;2023-04-03T09:05:11;3.03;;;1.50;;
15814;SDS011;8008;50.024;8.172;2023-04-03T09:07:42;1.53;;;1.20;;
15814;SDS011;8008;50.024;8.172;2023-04-03T09:10:15;2.07;;;1.27;;
15814;SDS011;8008;50.024;8.172;2023-04-03T09:12:52;2.70;;;1.20;;
15814;SDS011;8008;50.024;8.172;2023-04-03T09:15:27;3.63;;;1.60;;
15814;SDS011;8008;50.024;8.172;2023-04-03T09:18:05;3.63;;;1.10;;
15814;SDS011;8008;50.024;8.172;2023-04-03T09:20:42;4.57;;;1.50;;
15814;SDS011;8008;50.024;8.172;2023-04-03T09:23:15;5.27;;;1.30;;
15814;SDS011;8008;50.024;8.172;2023-04-03T09:25:47;4.07;;;1.13;;
15814;SDS011;8008;50.024;8.172;2023-04-03T09:28:18;2.97;;;1.23;;
15814;SDS011;8008;50.024;8.172;2023-04-03T09:30:47;3.77;;;1.30;;
15814;SDS011;8008;50.024;8.172;2023-04-03T09:33:15;1.98;;;1.20;;
15814;SDS011;8008;50.024;8.172;2023-04-03T09:35:44;1.38;;;1.20;;
15814;SDS011;8008;50.024;8.172;2023-04-03T09:38:15;2.45;;;1.00;;
15814;SDS011;8008;50.024;8.172;2023-04-03T09:40:45;1.37;;;1.17;;
15814;SDS011;8008;50.024;8.172;2023-04-03T09:43:23;3.97;;;1.40;;
15814;SDS011;8008;50.024;8.172;2023-04-03T09:45:55;1.70;;;1.23;;
15814;SDS011;8008;50.024;8.172;2023-04-03T09:48:24;2.30;;;1.55;;
15814;SDS011;8008;50.024;8.172;2023-04-03T09:50:58;2.70;;;1.40;;
15814;SDS011;8008;50.024;8.172;2023-04-03T09:53:29;4.20;;;1.60;;
15814;SDS011;8008;50.024;8.172;2023-04-03T09:56:04;4.07;;;1.50;;
15814;SDS011;8008;50.024;8.172;2023-04-03T09:58:45;3.72;;;1.50;;
15814;SDS011;8008;50.024;8.172;2023-04-03T10:01:25;3.60;;;1.48;;
15814;SDS011;8008;50.024;8.172;2023-04-03T10:04:08;4.40;;;1.50;;
15814;SDS011;8008;50.024;8.172;2023-04-03T10:06:37;3.28;;;1.45;;
15814;SDS011;8008;50.024;8.172;2023-04-03T10:09:17;4.43;;;1.65;;
15814;SDS011;8008;50.024;8.172;2023-04-03T10:12:00;3.03;;;1.50;;
15814;SDS011;8008;50.024;8.172;2023-04-03T10:14:31;3.83;;;1.73;;
15814;SDS011;8008;50.024;8.172;2023-04-03T10:17:09;4.45;;;1.70;;
15814;SDS011;8008;50.024;8.172;2023-04-03T10:19:46;3.22;;;1.65;;
15814;SDS011;8008;50.024;8.172;2023-04-03T10:22:21;4.47;;;1.70;;
15814;SDS011;8008;50.024;8.172;2023-04-03T10:25:01;3.42;;;1.77;;
15814;SDS011;8008;50.024;8.172;2023-04-03T10:27:38;3.27;;;1.40;;
15814;SDS011;8008;50.024;8.172;2023-04-03T10:30:18;3.05;;;1.60;;
15814;SDS011;8008;50.024;8.172;2023-04-03T10:32:58;3.00;;;1.50;;
15814;SDS011;8008;50.024;8.172;2023-04-03T10:35:39;6.03;;;1.70;;
15814;SDS011;8008;50.024;8.172;2023-04-03T10:38:14;2.28;;;1.60;;
15814;SDS011;8008;50.024;8.172;2023-04-03T10:40:48;3.88;;;1.70;;
15814;SDS011;8008;50.024;8.172;2023-04-03T10:43:24;5.15;;;1.80;;
15814;SDS011;8008;50.024;8.172;2023-04-03T10:46:02;7.68;;;2.88;;
15814;SDS011;8008;50.024;8.172;2023-04-03T10:48:38;6.95;;;1.90;;
15814;SDS011;8008;50.024;8.172;2023-04-03T10:51:20;4.40;;;1.60;;
15814;SDS011;8008;50.024;8.172;2023-04-03T10:53:55;4.35;;;1.77;;
15814;SDS011;8008;50.024;8.172;2023-04-03T10:56:30;2.45;;;1.55;;
15814;SDS011;8008;50.024;8.172;2023-04-03T10:59:07;2.95;;;1.48;;
15814;SDS011;8008;50.024;8.172;2023-04-03T11:01:44;3.88;;;1.65;;
15814;SDS011;8008;50.024;8.172;2023-04-03T11:04:17;3.13;;;1.70;;
15814;SDS011;8008;50.024;8.172;2023-04-03T11:06:48;3.85;;;1.70;;
15814;SDS011;8008;50.024;8.172;2023-04-03T11:09:22;3.05;;;1.67;;
15814;SDS011;8008;50.024;8.172;2023-04-03T11:11:55;3.45;;;1.92;;
15814;SDS011;8008;50.024;8.172;2023-04-03T11:14:27;5.10;;;1.88;;
15814;SDS011;8008;50.024;8.172;2023-04-03T11:17:01;3.40;;;2.40;;
15814;SDS011;8008;50.024;8.172;2023-04-03T11:19:38;4.28;;;2.00;;
15814;SDS011;8008;50.024;8.172;2023-04-03T11:22:11;4.55;;;1.80;;
15814;SDS011;8008;50.024;8.172;2023-04-03T11:24:46;11.90;;;3.50;;
15814;SDS011;8008;50.024;8.172;2023-04-03T11:27:23;4.30;;;2.28;;
15814;SDS011;8008;50.024;8.172;2023-04-03T11:29:53;5.53;;;3.35;;
15814;SDS011;8008;50.024;8.172;2023-04-03T11:35:18;4.82;;;2.15;;
15814;SDS011;8008;50.024;8.172;2023-04-03T11:37:47;3.00;;;2.05;;
15814;SDS011;8008;50.024;8.172;2023-04-03T11:40:20;2.30;;;1.95;;
15814;SDS011;8008;50.024;8.172;2023-04-03T11:42:52;4.18;;;2.00;;
15814;SDS011;8008;50.024;8.172;2023-04-03T11:45:27;5.93;;;1.83;;
15814;SDS011;8008;50.024;8.172;2023-04-03T11:48:01;2.28;;;2.00;;
15814;SDS011;8008;50.024;8.172;2023-04-03T11:50:50;2.35;;;1.90;;
15814;SDS011;8008;50.024;8.172;2023-04-03T11:53:29;3.10;;;2.25;;
15814;SDS011;8008;50.024;8.172;2023-04-03T11:56:00;3.13;;;1.67;;
15814;SDS011;8008;50.024;8.172;2023-04-03T11:58:30;4.60;;;1.90;;
15814;SDS011;8008;50.024;8.172;2023-04-03T12:01:09;3.20;;;1.70;;
15814;SDS011;8008;50.024;8.172;2023-04-03T12:09:34;3.42;;;2.00;;
15814;SDS011;8008;50.024;8.172;2023-04-03T12:12:34;2.63;;;2.20;;
15814;SDS011;8008;50.024;8.172;2023-04-03T12:15:12;3.58;;;2.13;;
15814;SDS011;8008;50.024;8.172;2023-04-03T12:17:48;3.42;;;1.80;;
15814;SDS011;8008;50.024;8.172;2023-04-03T12:23:26;4.10;;;1.80;;
15814;SDS011;8008;50.024;8.172;2023-04-03T12:25:59;2.88;;;1.95;;
15814;SDS011;8008;50.024;8.172;2023-04-03T12:28:37;2.60;;;1.95;;
15814;SDS011;8008;50.024;8.172;2023-04-03T12:31:07;2.85;;;1.70;;
15814;SDS011;8008;50.024;8.172;2023-04-03T12:33:44;3.03;;;1.65;;
15814;SDS011;8008;50.024;8.172;2023-04-03T12:36:26;4.32;;;2.20;;
15814;SDS011;8008;50.024;8.172;2023-04-03T12:39:09;3.10;;;1.85;;
15814;SDS011;8008;50.024;8.172;2023-04-03T12:41:50;3.42;;;2.00;;
15814;SDS011;8008;50.024;8.172;2023-04-03T12:44:36;2.92;;;1.70;;
15814;SDS011;8008;50.024;8.172;2023-04-03T12:47:25;1.75;;;1.50;;
15814;SDS011;8008;50.024;8.172;2023-04-03T12:49:59;4.72;;;2.10;;
15814;SDS011;8008;50.024;8.172;2023-04-03T12:52:31;2.85;;;1.60;;
15814;SDS011;8008;50.024;8.172;2023-04-03T12:55:04;2.90;;;1.80;;
15814;SDS011;8008;50.024;8.172;2023-04-03T12:57:41;2.53;;;1.90;;
15814;SDS011;8008;50.024;8.172;2023-04-03T13:00:29;2.60;;;1.80;;
15814;SDS011;8008;50.024;8.172;2023-04-03T13:03:01;2.28;;;1.77;;
15814;SDS011;8008;50.024;8.172;2023-04-03T13:05:31;2.17;;;1.77;;
15814;SDS011;8008;50.024;8.172;2023-04-03T13:08:03;3.05;;;1.80;;
15814;SDS011;8008;50.024;8.172;2023-04-03T13:10:43;4.07;;;2.00;;
15814;SDS011;8008;50.024;8.172;2023-04-03T13:13:19;1.85;;;1.70;;
15814;SDS011;8008;50.024;8.172;2023-04-03T13:15:49;2.28;;;1.80;;
15814;SDS011;8008;50.024;8.172;2023-04-03T13:18:22;2.53;;;1.90;;
15814;SDS011;8008;50.024;8.172;2023-04-03T13:20:51;2.65;;;1.70;;
15814;SDS011;8008;50.024;8.172;2023-04-03T13:23:21;3.90;;;1.63;;
15814;SDS011;8008;50.024;8.172;2023-04-03T13:25:51;3.40;;;2.00;;
15814;SDS011;8008;50.024;8.172;2023-04-03T13:28:20;3.72;;;1.90;;
15814;SDS011;8008;50.024;8.172;2023-04-03T13:30:54;2.95;;;1.80;;
15814;SDS011;8008;50.024;8.172;2023-04-03T13:33:27;2.28;;;1.50;;
15814;SDS011;8008;50.024;8.172;2023-04-03T13:35:57;4.07;;;1.75;;
15814;SDS011;8008;50.024;8.172;2023-04-03T13:38:31;2.42;;;1.73;;
15814;SDS011;8008;50.024;8.172;2023-04-03T13:41:03;3.75;;;1.90;;
15814;SDS011;8008;50.024;8.172;2023-04-03T13:43:33;2.75;;;1.90;;
15814;SDS011;8008;50.024;8.172;2023-04-03T13:46:04;4.60;;;2.20;;
15814;SDS011;8008;50.024;8.172;2023-04-03T13:48:49;2.53;;;1.58;;
15814;SDS011;8008;50.024;8.172;2023-04-03T13:51:19;2.83;;;1.90;;
15814;SDS011;8008;50.024;8.172;2023-04-03T13:53:52;3.22;;;1.90;;
15814;SDS011;8008;50.024;8.172;2023-04-03T13:56:24;2.85;;;2.00;;
15814;SDS011;8008;50.024;8.172;2023-04-03T13:59:03;2.50;;;1.83;;
15814;SDS011;8008;50.024;8.172;2023-04-03T14:01:41;2.28;;;1.88;;
15814;SDS011;8008;50.024;8.172;2023-04-03T14:04:14;1.88;;;1.70;;
15814;SDS011;8008;50.024;8.172;2023-04-03T14:06:46;3.00;;;1.90;;
15814;SDS011;8008;50.024;8.172;2023-04-03T14:09:15;2.10;;;1.80;;
15814;SDS011;8008;50.024;8.172;2023-04-03T14:11:46;2.38;;;1.80;;
15814;SDS011;8008;50.024;8.172;2023-04-03T14:14:16;2.58;;;1.90;;
15814;SDS011;8008;50.024;8.172;2023-04-03T14:16:47;2.50;;;1.73;;
15814;SDS011;8008;50.024;8.172;2023-04-03T14:19:20;2.55;;;1.95;;
15814;SDS011;8008;50.024;8.172;2023-04-03T14:21:50;2.17;;;1.90;;
15814;SDS011;8008;50.024;8.172;2023-04-03T14:24:19;2.15;;;1.80;;
15814;SDS011;8008;50.024;8.172;2023-04-03T14:26:49;2.53;;;1.80;;
15814;SDS011;8008;50.024;8.172;2023-04-03T14:29:18;3.05;;;1.90;;
15814;SDS011;8008;50.024;8.172;2023-04-03T14:31:48;2.13;;;1.73;;
15814;SDS011;8008;50.024;8.172;2023-04-03T14:34:29;3.17;;;2.13;;
15814;SDS011;8008;50.024;8.172;2023-04-03T14:36:57;2.75;;;2.10;;
15814;SDS011;8008;50.024;8.172;2023-04-03T14:39:25;2.10;;;1.60;;
15814;SDS011;8008;50.024;8.172;2023-04-03T14:41:54;2.22;;;1.95;;
15814;SDS011;8008;50.024;8.172;2023-04-03T14:44:22;2.25;;;1.85;;
15814;SDS011;8008;50.024;8.172;2023-04-03T14:46:50;4.47;;;2.20;;
15814;SDS011;8008;50.024;8.172;2023-04-03T14:49:24;2.20;;;2.00;;
15814;SDS011;8008;50.024;8.172;2023-04-03T14:51:54;2.67;;;1.98;;
15814;SDS011;8008;50.024;8.172;2023-04-03T14:54:23;2.88;;;2.10;;
15814;SDS011;8008;50.024;8.172;2023-04-03T14:56:55;4.28;;;1.95;;
15814;SDS011;8008;50.024;8.172;2023-04-03T14:59:26;3.40;;;2.00;;
15814;SDS011;8008;50.024;8.172;2023-04-03T15:01:54;4.20;;;2.22;;
15814;SDS011;8008;50.024;8.172;2023-04-03T15:04:22;4.85;;;2.10;;
15814;SDS011;8008;50.024;8.172;2023-04-03T15:06:51;3.60;;;2.00;;
15814;SDS011;8008;50.024;8.172;2023-04-03T15:09:21;2.63;;;2.00;;
15814;SDS011;8008;50.024;8.172;2023-04-03T15:11:50;2.67;;;2.13;;
15814;SDS011;8008;50.024;8.172;2023-04-03T15:14:21;2.80;;;1.90;;
15814;SDS011;8008;50.024;8.172;2023-04-03T15:17:08;3.17;;;2.10;;
15814;SDS011;8008;50.024;8.172;2023-04-03T15:19:43;2.55;;;1.83;;
15814;SDS011;8008;50.024;8.172;2023-04-03T15:22:12;2.20;;;2.00;;
15814;SDS011;8008;50.024;8.172;2023-04-03T15:24:41;3.38;;;2.10;;
15814;SDS011;8008;50.024;8.172;2023-04-03T15:27:10;2.80;;;1.77;;
15814;SDS011;8008;50.024;8.172;2023-04-03T15:29:41;2.35;;;1.50;;
15814;SDS011;8008;50.024;8.172;2023-04-03T15:32:10;2.95;;;1.85;;
15814;SDS011;8008;50.024;8.172;2023-04-03T15:34:39;2.42;;;1.70;;
15814;SDS011;8008;50.024;8.172;2023-04-03T15:37:07;2.30;;;1.77;;
15814;SDS011;8008;50.024;8.172;2023-04-03T15:39:36;2.83;;;1.60;;
15814;SDS011;8008;50.024;8.172;2023-04-03T15:42:04;2.42;;;1.60;;
15814;SDS011;8008;50.024;8.172;2023-04-03T15:44:33;2.40;;;1.65;;
15814;SDS011;8008;50.024;8.172;2023-04-03T15:47:02;2.60;;;1.83;;
15814;SDS011;8008;50.024;8.172;2023-04-03T15:49:31;1.83;;;1.38;;
15814;SDS011;8008;50.024;8.172;2023-04-03T15:52:01;4.32;;;1.60;;
15814;SDS011;8008;50.024;8.172;2023-04-03T15:54:29;1.67;;;1.30;;
15814;SDS011;8008;50.024;8.172;2023-04-03T15:56:57;3.35;;;1.70;;
15814;SDS011;8008;50.024;8.172;2023-04-03T15:59:27;4.20;;;2.55;;
15814;SDS011;8008;50.024;8.172;2023-04-03T16:01:57;2.25;;;1.50;;
15814;SDS011;8008;50.024;8.172;2023-04-03T16:04:28;3.33;;;2.17;;
15814;SDS011;8008;50.024;8.172;2023-04-03T16:07:00;3.55;;;2.00;;
15814;SDS011;8008;50.024;8.172;2023-04-03T16:09:28;3.67;;;2.05;;
15814;SDS011;8008;50.024;8.172;2023-04-03T16:11:57;3.50;;;1.90;;
15814;SDS011;8008;50.024;8.172;2023-04-03T16:14:26;2.97;;;1.50;;
15814;SDS011;8008;50.024;8.172;2023-04-03T16:16:56;4.80;;;2.08;;
15814;SDS011;8008;50.024;8.172;2023-04-03T16:19:25;3.55;;;1.60;;
15814;SDS011;8008;50.024;8.172;2023-04-03T16:21:54;2.17;;;1.42;;
15814;SDS011;8008;50.024;8.172;2023-04-03T16:24:24;3.45;;;1.33;;
15814;SDS011;8008;50.024;8.172;2023-04-03T16:26:52;2.30;;;1.20;;
15814;SDS011;8008;50.024;8.172;2023-04-03T16:29:20;2.17;;;1.45;;
15814;SDS011;8008;50.024;8.172;2023-04-03T16:31:48;2.55;;;1.40;;
15814;SDS011;8008;50.024;8.172;2023-04-03T16:34:16;1.95;;;1.48;;
15814;SDS011;8008;50.024;8.172;2023-04-03T16:36:44;2.17;;;1.40;;
15814;SDS011;8008;50.024;8.172;2023-04-03T16:39:13;3.00;;;1.40;;
15814;SDS011;8008;50.024;8.172;2023-04-03T16:41:42;2.25;;;1.20;;
15814;SDS011;8008;50.024;8.172;2023-04-03T16:44:10;2.55;;;1.20;;
15814;SDS011;8008;50.024;8.172;2023-04-03T16:46:38;2.95;;;1.30;;
15814;SDS011;8008;50.024;8.172;2023-04-03T16:49:06;1.90;;;1.40;;
15814;SDS011;8008;50.024;8.172;2023-04-03T16:51:48;2.60;;;1.27;;
15814;SDS011;8008;50.024;8.172;2023-04-03T16:54:17;1.95;;;1.30;;
15814;SDS011;8008;50.024;8.172;2023-04-03T16:56:45;2.17;;;1.33;;
15814;SDS011;8008;50.024;8.172;2023-04-03T16:59:13;1.73;;;1.38;;
15814;SDS011;8008;50.024;8.172;2023-04-03T17:01:41;2.33;;;1.40;;
15814;SDS011;8008;50.024;8.172;2023-04-03T17:04:09;1.70;;;1.17;;
15814;SDS011;8008;50.024;8.172;2023-04-03T17:06:39;1.83;;;0.95;;
15814;SDS011;8008;50.024;8.172;2023-04-03T17:09:07;3.45;;;1.30;;
15814;SDS011;8008;50.024;8.172;2023-04-03T17:11:37;1.42;;;1.02;;
15814;SDS011;8008;50.024;8.172;2023-04-03T17:14:05;2.92;;;1.20;;
15814;SDS011;8008;50.024;8.172;2023-04-03T17:16:33;3.75;;;1.20;;
15814;SDS011;8008;50.024;8.172;2023-04-03T17:19:04;2.83;;;1.05;;
15814;SDS011;8008;50.024;8.172;2023-04-03T17:21:32;1.88;;;1.00;;
15814;SDS011;8008;50.024;8.172;2023-04-03T17:24:02;2.38;;;1.20;;
15814;SDS011;8008;50.024;8.172;2023-04-03T17:26:34;2.45;;;1.33;;
15814;SDS011;8008;50.024;8.172;2023-04-03T17:29:05;2.13;;;1.17;;
15814;SDS011;8008;50.024;8.172;2023-04-03T17:31:33;2.22;;;1.02;;
15814;SDS011;8008;50.024;8.172;2023-04-03T17:34:01;1.40;;;1.10;;
15814;SDS011;8008;50.024;8.172;2023-04-03T17:36:31;4.22;;;1.25;;
15814;SDS011;8008;50.024;8.172;2023-04-03T17:39:00;1.42;;;1.10;;
15814;SDS011;8008;50.024;8.172;2023-04-03T17:41:28;2.47;;;1.23;;
15814;SDS011;8008;50.024;8.172;2023-04-03T17:43:55;1.35;;;1.17;;
15814;SDS011;8008;50.024;8.172;2023-04-03T17:46:25;3.65;;;1.40;;
15814;SDS011;8008;50.024;8.172;2023-04-03T17:48:55;2.65;;;1.40;;
15814;SDS011;8008;50.024;8.172;2023-04-03T17:51:24;2.15;;;1.10;;
15814;SDS011;8008;50.024;8.172;2023-04-03T17:53:53;2.20;;;1.38;;
15814;SDS011;8008;50.024;8.172;2023-04-03T17:56:21;3.80;;;1.30;;
15814;SDS011;8008;50.024;8.172;2023-04-03T17:58:52;3.15;;;1.27;;
15814;SDS011;8008;50.024;8.172;2023-04-03T18:01:22;3.20;;;1.38;;
15814;SDS011;8008;50.024;8.172;2023-04-03T18:03:56;3.13;;;1.50;;
15814;SDS011;8008;50.024;8.172;2023-04-03T18:06:26;4.60;;;1.48;;
15814;SDS011;8008;50.024;8.172;2023-04-03T18:08:57;5.05;;;1.58;;
15814;SDS011;8008;50.024;8.172;2023-04-03T18:11:32;4.93;;;1.90;;
15814;SDS011;8008;50.024;8.172;2023-04-03T18:14:01;3.97;;;1.60;;
15814;SDS011;8008;50.024;8.172;2023-04-03T18:16:34;6.90;;;2.10;;
15814;SDS011;8008;50.024;8.172;2023-04-03T18:19:02;2.13;;;1.52;;
15814;SDS011;8008;50.024;8.172;2023-04-03T18:21:48;3.80;;;1.77;;
15814;SDS011;8008;50.024;8.172;2023-04-03T18:24:18;3.83;;;1.70;;
15814;SDS011;8008;50.024;8.172;2023-04-03T18:26:49;2.55;;;1.38;;
15814;SDS011;8008;50.024;8.172;2023-04-03T18:29:19;2.13;;;1.20;;
15814;SDS011;8008;50.024;8.172;2023-04-03T18:31:50;2.20;;;1.33;;
15814;SDS011;8008;50.024;8.172;2023-04-03T18:34:20;3.13;;;1.50;;
15814;SDS011;8008;50.024;8.172;2023-04-03T18:36:48;3.60;;;1.70;;